sensor_id;sensor_type;location;lat;lon;timestamp;temperature;humidity
1025;DHT22;501;48.214;11.350;2023-03-24T00:02:22;12.90;42.00
1025;DHT22;501;48.214;11.350;2023-03-24T00:04:49;13.00;42.00
1025;DHT22;501;48.214;11.350;2023-03-24T00:07:17;12.90;41.90
1025;DHT22;501;48.214;11.350;2023-03-24T00:09:44;12.90;41.90
1025;DHT22;501;48.214;11.350;2023-03-24T00:12:12;13.00;41.60
1025;DHT22;501;48.214;11.350;2023-03-24T00:14:43;12.90;41.50
1025;DHT22;501;48.214;11.350;2023-03-24T00:17:11;12.90;41.40
1025;DHT22;501;48.214;11.350;2023-03-24T00:19:39;12.90;41.20
1025;DHT22;501;48.214;11.350;2023-03-24T00:22:06;12.90;41.10
1025;DHT22;501;48.214;11.350;2023-03-24T00:24:32;12.90;41.10
1025;DHT22;501;48.214;11.350;2023-03-24T00:26:59;12.90;41.00
1025;DHT22;501;48.214;11.350;2023-03-24T00:29:26;12.90;40.30
1025;DHT22;501;48.214;11.350;2023-03-24T00:31:52;12.90;40.30
1025;DHT22;501;48.214;11.350;2023-03-24T00:34:21;12.90;40.10
1025;DHT22;501;48.214;11.350;2023-03-24T00:36:48;12.90;40.30
1025;DHT22;501;48.214;11.350;2023-03-24T00:39:14;12.90;40.10
1025;DHT22;501;48.214;11.350;2023-03-24T00:41:44;12.90;40.60
1025;DHT22;501;48.214;11.350;2023-03-24T00:44:10;12.90;40.10
1025;DHT22;501;48.214;11.350;2023-03-24T00:46:49;12.90;40.50
1025;DHT22;501;48.214;11.350;2023-03-24T00:49:24;12.80;40.40
1025;DHT22;501;48.214;11.350;2023-03-24T00:52:26;12.80;40.50
1025;DHT22;501;48.214;11.350;2023-03-24T00:54:59;12.80;40.60
1025;DHT22;501;48.214;11.350;2023-03-24T00:57:27;12.80;40.90
1025;DHT22;501;48.214;11.350;2023-03-24T00:59:55;12.80;40.80
1025;DHT22;501;48.214;11.350;2023-03-24T01:02:24;12.80;40.60
1025;DHT22;501;48.214;11.350;2023-03-24T01:04:54;12.80;40.40
1025;DHT22;501;48.214;11.350;2023-03-24T01:07:21;12.80;40.20
1025;DHT22;501;48.214;11.350;2023-03-24T01:09:48;12.80;40.10
1025;DHT22;501;48.214;11.350;2023-03-24T01:12:23;12.80;40.10
1025;DHT22;501;48.214;11.350;2023-03-24T01:14:50;12.80;40.40
1025;DHT22;501;48.214;11.350;2023-03-24T01:17:17;12.80;40.60
1025;DHT22;501;48.214;11.350;2023-03-24T01:19:44;12.80;40.70
1025;DHT22;501;48.214;11.350;2023-03-24T01:22:10;12.80;40.90
1025;DHT22;501;48.214;11.350;2023-03-24T01:24:37;12.80;40.70
1025;DHT22;501;48.214;11.350;2023-03-24T01:27:02;12.70;40.50
1025;DHT22;501;48.214;11.350;2023-03-24T01:29:28;12.70;40.70
1025;DHT22;501;48.214;11.350;2023-03-24T01:31:54;12.70;40.80
1025;DHT22;501;48.214;11.350;2023-03-24T01:34:20;12.70;40.60
1025;DHT22;501;48.214;11.350;2023-03-24T01:36:45;12.70;40.50
1025;DHT22;501;48.214;11.350;2023-03-24T01:39:11;12.70;40.40
1025;DHT22;501;48.214;11.350;2023-03-24T01:41:38;12.70;40.40
1025;DHT22;501;48.214;11.350;2023-03-24T01:46:49;12.70;39.90
1025;DHT22;501;48.214;11.350;2023-03-24T01:49:15;12.80;40.20
1025;DHT22;501;48.214;11.350;2023-03-24T01:51:43;12.80;40.10
1025;DHT22;501;48.214;11.350;2023-03-24T01:54:19;12.80;40.00
1025;DHT22;501;48.214;11.350;2023-03-24T01:57:00;12.80;40.20
1025;DHT22;501;48.214;11.350;2023-03-24T01:59:29;12.80;41.30
1025;DHT22;501;48.214;11.350;2023-03-24T02:01:56;12.80;41.70
1025;DHT22;501;48.214;11.350;2023-03-24T02:04:49;12.80;41.90
1025;DHT22;501;48.214;11.350;2023-03-24T02:07:56;12.80;42.70
1025;DHT22;501;48.214;11.350;2023-03-24T02:10:25;12.80;42.80
1025;DHT22;501;48.214;11.350;2023-03-24T02:12:50;12.80;42.70
1025;DHT22;501;48.214;11.350;2023-03-24T02:15:18;12.70;42.90
1025;DHT22;501;48.214;11.350;2023-03-24T02:43:25;12.50;47.20
1025;DHT22;501;48.214;11.350;2023-03-24T02:46:12;12.50;46.70
1025;DHT22;501;48.214;11.350;2023-03-24T02:51:42;12.40;46.30
1025;DHT22;501;48.214;11.350;2023-03-24T02:54:15;12.40;47.70
1025;DHT22;501;48.214;11.350;2023-03-24T02:56:53;12.40;47.20
1025;DHT22;501;48.214;11.350;2023-03-24T02:59:40;12.50;47.90
1025;DHT22;501;48.214;11.350;2023-03-24T03:02:11;12.50;48.60
1025;DHT22;501;48.214;11.350;2023-03-24T03:04:49;12.40;48.30
1025;DHT22;501;48.214;11.350;2023-03-24T03:07:21;12.40;47.90
1025;DHT22;501;48.214;11.350;2023-03-24T03:09:55;12.50;48.50
1025;DHT22;501;48.214;11.350;2023-03-24T03:12:23;12.50;48.50
1025;DHT22;501;48.214;11.350;2023-03-24T03:14:55;12.50;49.30
1025;DHT22;501;48.214;11.350;2023-03-24T03:17:29;12.50;49.70
1025;DHT22;501;48.214;11.350;2023-03-24T03:20:03;12.40;50.20
1025;DHT22;501;48.214;11.350;2023-03-24T03:22:46;12.40;51.00
1025;DHT22;501;48.214;11.350;2023-03-24T03:25:16;12.40;51.20
1025;DHT22;501;48.214;11.350;2023-03-24T03:27:45;12.40;51.20
1025;DHT22;501;48.214;11.350;2023-03-24T03:30:15;12.40;51.00
1025;DHT22;501;48.214;11.350;2023-03-24T03:32:48;12.30;50.60
1025;DHT22;501;48.214;11.350;2023-03-24T03:35:40;12.30;50.40
1025;DHT22;501;48.214;11.350;2023-03-24T03:40:56;12.30;51.00
1025;DHT22;501;48.214;11.350;2023-03-24T03:43:25;12.30;51.10
1025;DHT22;501;48.214;11.350;2023-03-24T03:45:52;12.30;51.10
1025;DHT22;501;48.214;11.350;2023-03-24T03:48:18;12.20;51.00
1025;DHT22;501;48.214;11.350;2023-03-24T03:50:44;12.20;50.90
1025;DHT22;501;48.214;11.350;2023-03-24T03:53:13;12.20;50.20
1025;DHT22;501;48.214;11.350;2023-03-24T03:55:40;12.20;49.70
1025;DHT22;501;48.214;11.350;2023-03-24T03:58:06;12.20;49.50
1025;DHT22;501;48.214;11.350;2023-03-24T04:00:33;12.20;49.70
1025;DHT22;501;48.214;11.350;2023-03-24T04:10:52;12.20;49.00
1025;DHT22;501;48.214;11.350;2023-03-24T04:16:25;12.20;49.50
1025;DHT22;501;48.214;11.350;2023-03-24T04:22:47;12.20;49.60
1025;DHT22;501;48.214;11.350;2023-03-24T04:36:48;12.10;50.90
1025;DHT22;501;48.214;11.350;2023-03-24T04:39:21;12.00;51.30
1025;DHT22;501;48.214;11.350;2023-03-24T04:41:54;12.00;52.60
1025;DHT22;501;48.214;11.350;2023-03-24T04:44:21;12.00;52.50
1025;DHT22;501;48.214;11.350;2023-03-24T04:46:49;11.90;52.90
1025;DHT22;501;48.214;11.350;2023-03-24T04:49:16;11.90;53.50
1025;DHT22;501;48.214;11.350;2023-03-24T04:51:44;11.90;52.70
1025;DHT22;501;48.214;11.350;2023-03-24T04:54:10;11.90;53.00
1025;DHT22;501;48.214;11.350;2023-03-24T04:56:46;11.90;52.70
1025;DHT22;501;48.214;11.350;2023-03-24T04:59:13;11.90;52.20
1025;DHT22;501;48.214;11.350;2023-03-24T05:01:40;11.90;52.50
1025;DHT22;501;48.214;11.350;2023-03-24T05:04:06;12.00;53.70
1025;DHT22;501;48.214;11.350;2023-03-24T05:06:32;12.00;53.20
1025;DHT22;501;48.214;11.350;2023-03-24T05:08:58;12.00;53.40
1025;DHT22;501;48.214;11.350;2023-03-24T05:11:25;12.00;53.60
1025;DHT22;501;48.214;11.350;2023-03-24T05:13:52;12.00;53.80
1025;DHT22;501;48.214;11.350;2023-03-24T05:16:18;12.00;53.20
1025;DHT22;501;48.214;11.350;2023-03-24T05:18:43;12.00;52.90
1025;DHT22;501;48.214;11.350;2023-03-24T05:21:09;12.00;53.70
1025;DHT22;501;48.214;11.350;2023-03-24T05:23:35;11.90;54.00
1025;DHT22;501;48.214;11.350;2023-03-24T05:26:01;12.00;54.70
1025;DHT22;501;48.214;11.350;2023-03-24T05:28:27;11.90;55.90
1025;DHT22;501;48.214;11.350;2023-03-24T05:30:52;12.00;55.30
1025;DHT22;501;48.214;11.350;2023-03-24T05:33:18;12.00;55.90
1025;DHT22;501;48.214;11.350;2023-03-24T05:35:44;12.00;56.30
1025;DHT22;501;48.214;11.350;2023-03-24T05:38:10;12.00;57.40
1025;DHT22;501;48.214;11.350;2023-03-24T05:40:36;12.00;58.30
1025;DHT22;501;48.214;11.350;2023-03-24T05:43:01;12.00;58.40
1025;DHT22;501;48.214;11.350;2023-03-24T05:45:27;12.00;59.30
1025;DHT22;501;48.214;11.350;2023-03-24T05:47:54;12.00;58.90
1025;DHT22;501;48.214;11.350;2023-03-24T05:50:20;12.10;58.10
1025;DHT22;501;48.214;11.350;2023-03-24T05:52:46;12.10;58.40
1025;DHT22;501;48.214;11.350;2023-03-24T05:55:11;12.10;59.40
1025;DHT22;501;48.214;11.350;2023-03-24T05:57:37;12.10;59.50
1025;DHT22;501;48.214;11.350;2023-03-24T06:00:04;12.10;60.40
1025;DHT22;501;48.214;11.350;2023-03-24T06:02:35;12.10;61.40
1025;DHT22;501;48.214;11.350;2023-03-24T06:05:01;12.20;61.10
1025;DHT22;501;48.214;11.350;2023-03-24T06:07:27;12.10;60.40
1025;DHT22;501;48.214;11.350;2023-03-24T06:09:56;12.10;60.30
1025;DHT22;501;48.214;11.350;2023-03-24T06:12:22;12.10;60.50
1025;DHT22;501;48.214;11.350;2023-03-24T06:14:48;12.10;60.30
1025;DHT22;501;48.214;11.350;2023-03-24T06:17:14;12.10;60.20
1025;DHT22;501;48.214;11.350;2023-03-24T06:19:43;12.20;60.50
1025;DHT22;501;48.214;11.350;2023-03-24T06:22:14;12.20;59.50
1025;DHT22;501;48.214;11.350;2023-03-24T06:24:40;12.20;60.20
1025;DHT22;501;48.214;11.350;2023-03-24T06:27:07;12.20;59.60
1025;DHT22;501;48.214;11.350;2023-03-24T06:29:33;12.20;59.60
1025;DHT22;501;48.214;11.350;2023-03-24T06:31:59;12.20;59.60
1025;DHT22;501;48.214;11.350;2023-03-24T06:34:25;12.20;59.40
1025;DHT22;501;48.214;11.350;2023-03-24T06:36:51;12.20;58.20
1025;DHT22;501;48.214;11.350;2023-03-24T06:39:17;12.20;57.70
1025;DHT22;501;48.214;11.350;2023-03-24T06:41:43;12.20;57.60
1025;DHT22;501;48.214;11.350;2023-03-24T06:44:08;12.20;57.70
1025;DHT22;501;48.214;11.350;2023-03-24T06:46:34;12.20;57.60
1025;DHT22;501;48.214;11.350;2023-03-24T06:48:59;12.20;57.30
1025;DHT22;501;48.214;11.350;2023-03-24T06:51:25;12.20;57.10
1025;DHT22;501;48.214;11.350;2023-03-24T06:53:51;12.20;57.30
1025;DHT22;501;48.214;11.350;2023-03-24T06:56:17;12.20;57.80
1025;DHT22;501;48.214;11.350;2023-03-24T06:58:44;12.20;57.70
1025;DHT22;501;48.214;11.350;2023-03-24T07:01:11;12.20;57.10
1025;DHT22;501;48.214;11.350;2023-03-24T07:03:37;12.20;57.60
1025;DHT22;501;48.214;11.350;2023-03-24T07:06:04;12.20;57.90
1025;DHT22;501;48.214;11.350;2023-03-24T07:08:30;12.20;57.90
1025;DHT22;501;48.214;11.350;2023-03-24T07:10:57;12.20;57.90
1025;DHT22;501;48.214;11.350;2023-03-24T07:13:23;12.20;57.60
1025;DHT22;501;48.214;11.350;2023-03-24T07:15:48;12.30;58.30
1025;DHT22;501;48.214;11.350;2023-03-24T07:18:14;12.30;59.20
1025;DHT22;501;48.214;11.350;2023-03-24T07:20:40;12.30;58.10
1025;DHT22;501;48.214;11.350;2023-03-24T07:23:05;12.30;58.50
1025;DHT22;501;48.214;11.350;2023-03-24T07:25:31;12.40;59.10
1025;DHT22;501;48.214;11.350;2023-03-24T07:27:58;12.30;60.80
1025;DHT22;501;48.214;11.350;2023-03-24T07:30:24;12.40;61.10
1025;DHT22;501;48.214;11.350;2023-03-24T07:32:50;12.40;61.70
1025;DHT22;501;48.214;11.350;2023-03-24T07:35:16;12.40;58.10
1025;DHT22;501;48.214;11.350;2023-03-24T07:37:43;12.40;56.70
1025;DHT22;501;48.214;11.350;2023-03-24T07:40:09;12.40;56.70
1025;DHT22;501;48.214;11.350;2023-03-24T07:42:39;12.40;57.60
1025;DHT22;501;48.214;11.350;2023-03-24T07:45:07;12.50;57.10
1025;DHT22;501;48.214;11.350;2023-03-24T07:47:35;12.50;57.00
1025;DHT22;501;48.214;11.350;2023-03-24T07:50:01;12.60;55.70
1025;DHT22;501;48.214;11.350;2023-03-24T07:52:29;12.60;55.40
1025;DHT22;501;48.214;11.350;2023-03-24T07:54:55;12.70;55.00
1025;DHT22;501;48.214;11.350;2023-03-24T07:57:21;12.70;55.00
1025;DHT22;501;48.214;11.350;2023-03-24T07:59:47;12.70;53.50
1025;DHT22;501;48.214;11.350;2023-03-24T08:02:18;12.80;53.30
1025;DHT22;501;48.214;11.350;2023-03-24T08:04:44;12.80;54.40
1025;DHT22;501;48.214;11.350;2023-03-24T08:07:11;12.80;53.10
1025;DHT22;501;48.214;11.350;2023-03-24T08:09:39;12.80;55.30
1025;DHT22;501;48.214;11.350;2023-03-24T08:12:05;12.80;57.60
1025;DHT22;501;48.214;11.350;2023-03-24T08:14:31;12.80;56.30
1025;DHT22;501;48.214;11.350;2023-03-24T08:16:56;12.80;58.00
1025;DHT22;501;48.214;11.350;2023-03-24T08:19:22;12.80;60.00
1025;DHT22;501;48.214;11.350;2023-03-24T08:21:48;12.80;58.90
1025;DHT22;501;48.214;11.350;2023-03-24T08:24:13;12.80;60.10
1025;DHT22;501;48.214;11.350;2023-03-24T08:26:39;12.80;61.20
1025;DHT22;501;48.214;11.350;2023-03-24T08:29:07;12.90;62.20
1025;DHT22;501;48.214;11.350;2023-03-24T08:31:34;12.90;62.00
1025;DHT22;501;48.214;11.350;2023-03-24T08:34:00;12.90;62.90
1025;DHT22;501;48.214;11.350;2023-03-24T08:36:26;12.90;61.50
1025;DHT22;501;48.214;11.350;2023-03-24T08:38:53;13.00;62.80
1025;DHT22;501;48.214;11.350;2023-03-24T08:41:20;13.00;62.80
1025;DHT22;501;48.214;11.350;2023-03-24T08:43:47;13.00;63.10
1025;DHT22;501;48.214;11.350;2023-03-24T08:46:13;13.00;62.90
1025;DHT22;501;48.214;11.350;2023-03-24T08:48:40;13.10;63.40
1025;DHT22;501;48.214;11.350;2023-03-24T08:51:11;13.00;62.60
1025;DHT22;501;48.214;11.350;2023-03-24T08:53:36;13.10;63.80
1025;DHT22;501;48.214;11.350;2023-03-24T08:56:02;13.10;64.50
1025;DHT22;501;48.214;11.350;2023-03-24T08:58:27;13.10;64.70
1025;DHT22;501;48.214;11.350;2023-03-24T09:00:53;13.10;64.70
1025;DHT22;501;48.214;11.350;2023-03-24T09:03:19;13.20;66.40
1025;DHT22;501;48.214;11.350;2023-03-24T09:05:46;13.20;65.80
1025;DHT22;501;48.214;11.350;2023-03-24T09:08:13;13.20;67.40
1025;DHT22;501;48.214;11.350;2023-03-24T09:10:40;13.20;66.10
1025;DHT22;501;48.214;11.350;2023-03-24T09:13:06;13.30;67.40
1025;DHT22;501;48.214;11.350;2023-03-24T09:15:32;13.30;66.10
1025;DHT22;501;48.214;11.350;2023-03-24T09:17:58;13.40;65.70
1025;DHT22;501;48.214;11.350;2023-03-24T09:20:24;13.40;64.00
1025;DHT22;501;48.214;11.350;2023-03-24T09:22:50;13.40;63.60
1025;DHT22;501;48.214;11.350;2023-03-24T09:25:18;13.40;63.00
1025;DHT22;501;48.214;11.350;2023-03-24T09:27:45;13.50;60.90
1025;DHT22;501;48.214;11.350;2023-03-24T09:30:14;13.50;61.40
1025;DHT22;501;48.214;11.350;2023-03-24T09:32:40;13.50;59.70
1025;DHT22;501;48.214;11.350;2023-03-24T09:35:06;13.50;61.90
1025;DHT22;501;48.214;11.350;2023-03-24T09:37:34;13.40;60.60
1025;DHT22;501;48.214;11.350;2023-03-24T09:39:59;13.40;61.90
1025;DHT22;501;48.214;11.350;2023-03-24T09:42:33;13.30;64.50
1025;DHT22;501;48.214;11.350;2023-03-24T09:45:09;13.30;64.00
1025;DHT22;501;48.214;11.350;2023-03-24T09:47:43;13.40;65.00
1025;DHT22;501;48.214;11.350;2023-03-24T09:50:32;13.30;62.50
1025;DHT22;501;48.214;11.350;2023-03-24T09:53:07;13.30;63.20
1025;DHT22;501;48.214;11.350;2023-03-24T09:55:36;13.20;64.90
1025;DHT22;501;48.214;11.350;2023-03-24T09:58:05;13.30;65.50
1025;DHT22;501;48.214;11.350;2023-03-24T10:00:35;13.30;66.70
1025;DHT22;501;48.214;11.350;2023-03-24T10:03:13;13.30;67.10
1025;DHT22;501;48.214;11.350;2023-03-24T10:08:41;13.40;66.10
1025;DHT22;501;48.214;11.350;2023-03-24T10:17:01;13.30;67.50
1025;DHT22;501;48.214;11.350;2023-03-24T10:22:24;13.40;67.00
1025;DHT22;501;48.214;11.350;2023-03-24T10:28:46;13.40;67.60
1025;DHT22;501;48.214;11.350;2023-03-24T10:30:54;13.40;68.00
1025;DHT22;501;48.214;11.350;2023-03-24T10:33:21;13.50;67.00
1025;DHT22;501;48.214;11.350;2023-03-24T10:36:04;13.50;63.90
1025;DHT22;501;48.214;11.350;2023-03-24T10:38:31;13.50;62.70
1025;DHT22;501;48.214;11.350;2023-03-24T10:40:56;13.50;62.50
1025;DHT22;501;48.214;11.350;2023-03-24T10:43:24;13.50;61.40
1025;DHT22;501;48.214;11.350;2023-03-24T10:45:55;13.50;60.70
1025;DHT22;501;48.214;11.350;2023-03-24T10:48:46;13.40;63.80
1025;DHT22;501;48.214;11.350;2023-03-24T10:51:22;13.30;62.30
1025;DHT22;501;48.214;11.350;2023-03-24T10:53:50;13.40;60.60
1025;DHT22;501;48.214;11.350;2023-03-24T10:56:51;13.40;60.60
1025;DHT22;501;48.214;11.350;2023-03-24T10:59:35;13.40;61.20
1025;DHT22;501;48.214;11.350;2023-03-24T11:02:20;13.40;60.50
1025;DHT22;501;48.214;11.350;2023-03-24T11:04:56;13.50;60.70
1025;DHT22;501;48.214;11.350;2023-03-24T11:07:37;13.50;61.30
1025;DHT22;501;48.214;11.350;2023-03-24T11:10:26;13.50;55.50
1025;DHT22;501;48.214;11.350;2023-03-24T11:15:31;13.50;57.10
1025;DHT22;501;48.214;11.350;2023-03-24T11:18:14;13.50;56.30
1025;DHT22;501;48.214;11.350;2023-03-24T11:20:44;13.50;57.20
1025;DHT22;501;48.214;11.350;2023-03-24T11:23:31;13.50;56.50
1025;DHT22;501;48.214;11.350;2023-03-24T11:26:18;13.60;58.00
1025;DHT22;501;48.214;11.350;2023-03-24T11:29:00;13.60;57.60
1025;DHT22;501;48.214;11.350;2023-03-24T11:31:28;13.70;53.30
1025;DHT22;501;48.214;11.350;2023-03-24T11:34:00;13.90;51.50
1025;DHT22;501;48.214;11.350;2023-03-24T11:42:05;14.30;50.40
1025;DHT22;501;48.214;11.350;2023-03-24T11:47:09;14.70;49.80
1025;DHT22;501;48.214;11.350;2023-03-24T11:49:44;14.80;48.20
1025;DHT22;501;48.214;11.350;2023-03-24T11:52:35;15.00;46.10
1025;DHT22;501;48.214;11.350;2023-03-24T11:55:16;15.10;44.80
1025;DHT22;501;48.214;11.350;2023-03-24T11:57:44;15.10;45.10
1025;DHT22;501;48.214;11.350;2023-03-24T12:00:24;15.20;45.70
1025;DHT22;501;48.214;11.350;2023-03-24T12:13:35;15.90;41.80
1025;DHT22;501;48.214;11.350;2023-03-24T12:18:46;16.10;41.20
1025;DHT22;501;48.214;11.350;2023-03-24T12:26:31;16.40;40.10
1025;DHT22;501;48.214;11.350;2023-03-24T12:37:26;16.40;39.20
1025;DHT22;501;48.214;11.350;2023-03-24T12:42:42;16.40;37.80
1025;DHT22;501;48.214;11.350;2023-03-24T12:58:03;15.40;42.50
1025;DHT22;501;48.214;11.350;2023-03-24T13:00:36;15.20;42.20
1025;DHT22;501;48.214;11.350;2023-03-24T13:03:10;14.90;44.60
1025;DHT22;501;48.214;11.350;2023-03-24T13:05:42;14.80;44.50
1025;DHT22;501;48.214;11.350;2023-03-24T13:08:14;14.60;45.80
1025;DHT22;501;48.214;11.350;2023-03-24T13:10:42;14.50;45.20
1025;DHT22;501;48.214;11.350;2023-03-24T13:13:22;14.30;47.30
1025;DHT22;501;48.214;11.350;2023-03-24T13:15:56;14.20;50.60
1025;DHT22;501;48.214;11.350;2023-03-24T13:21:08;14.10;51.70
1025;DHT22;501;48.214;11.350;2023-03-24T13:24:01;14.00;52.40
1025;DHT22;501;48.214;11.350;2023-03-24T13:26:51;14.00;50.90
1025;DHT22;501;48.214;11.350;2023-03-24T13:32:13;14.00;51.10
1025;DHT22;501;48.214;11.350;2023-03-24T13:34:47;14.00;50.90
1025;DHT22;501;48.214;11.350;2023-03-24T13:37:22;14.00;49.90
1025;DHT22;501;48.214;11.350;2023-03-24T13:39:57;14.00;50.00
1025;DHT22;501;48.214;11.350;2023-03-24T13:42:46;14.00;48.50
1025;DHT22;501;48.214;11.350;2023-03-24T13:45:42;14.00;48.60
1025;DHT22;501;48.214;11.350;2023-03-24T13:50:37;14.00;48.70
1025;DHT22;501;48.214;11.350;2023-03-24T13:53:06;14.10;48.60
1025;DHT22;501;48.214;11.350;2023-03-24T13:55:38;14.10;47.10
1025;DHT22;501;48.214;11.350;2023-03-24T13:58:19;14.10;45.80
1025;DHT22;501;48.214;11.350;2023-03-24T14:03:42;14.20;45.80
1025;DHT22;501;48.214;11.350;2023-03-24T14:06:09;14.20;45.20
1025;DHT22;501;48.214;11.350;2023-03-24T14:20:23;14.20;41.50
1025;DHT22;501;48.214;11.350;2023-03-24T14:22:34;14.10;42.40
1025;DHT22;501;48.214;11.350;2023-03-24T14:25:20;14.10;42.40
1025;DHT22;501;48.214;11.350;2023-03-24T14:27:49;14.10;42.80
1025;DHT22;501;48.214;11.350;2023-03-24T14:30:23;14.10;42.90
1025;DHT22;501;48.214;11.350;2023-03-24T14:32:53;14.10;42.60
1025;DHT22;501;48.214;11.350;2023-03-24T14:38:18;14.00;43.80
1025;DHT22;501;48.214;11.350;2023-03-24T14:40:47;14.10;43.90
1025;DHT22;501;48.214;11.350;2023-03-24T14:43:27;14.00;43.80
1025;DHT22;501;48.214;11.350;2023-03-24T14:46:00;14.10;44.30
1025;DHT22;501;48.214;11.350;2023-03-24T14:54:22;14.00;45.70
1025;DHT22;501;48.214;11.350;2023-03-24T14:56:51;14.10;43.90
1025;DHT22;501;48.214;11.350;2023-03-24T15:04:37;14.10;43.40
1025;DHT22;501;48.214;11.350;2023-03-24T15:07:04;14.10;43.90
1025;DHT22;501;48.214;11.350;2023-03-24T15:09:30;14.10;43.90
1025;DHT22;501;48.214;11.350;2023-03-24T15:12:00;14.10;44.30
1025;DHT22;501;48.214;11.350;2023-03-24T15:14:26;14.00;45.50
1025;DHT22;501;48.214;11.350;2023-03-24T15:16:53;14.00;46.40
1025;DHT22;501;48.214;11.350;2023-03-24T15:19:22;13.90;46.60
1025;DHT22;501;48.214;11.350;2023-03-24T15:21:56;13.90;47.80
1025;DHT22;501;48.214;11.350;2023-03-24T15:24:29;13.90;46.80
1025;DHT22;501;48.214;11.350;2023-03-24T15:27:13;13.80;46.80
1025;DHT22;501;48.214;11.350;2023-03-24T15:29:43;13.80;46.60
1025;DHT22;501;48.214;11.350;2023-03-24T15:32:20;13.70;46.50
1025;DHT22;501;48.214;11.350;2023-03-24T15:34:54;13.70;46.30
1025;DHT22;501;48.214;11.350;2023-03-24T15:39:58;13.70;44.00
1025;DHT22;501;48.214;11.350;2023-03-24T15:42:24;13.70;44.00
1025;DHT22;501;48.214;11.350;2023-03-24T15:44:51;13.70;44.60
1025;DHT22;501;48.214;11.350;2023-03-24T15:47:37;13.60;44.30
1025;DHT22;501;48.214;11.350;2023-03-24T15:50:04;13.50;45.00
1025;DHT22;501;48.214;11.350;2023-03-24T15:52:37;13.50;45.00
1025;DHT22;501;48.214;11.350;2023-03-24T15:55:27;13.40;46.10
1025;DHT22;501;48.214;11.350;2023-03-24T15:57:55;13.20;47.10
1025;DHT22;501;48.214;11.350;2023-03-24T16:00:34;13.20;48.10
1025;DHT22;501;48.214;11.350;2023-03-24T16:03:02;13.10;49.30
1025;DHT22;501;48.214;11.350;2023-03-24T16:05:31;13.00;51.70
1025;DHT22;501;48.214;11.350;2023-03-24T16:08:05;12.90;50.80
1025;DHT22;501;48.214;11.350;2023-03-24T16:10:38;12.80;53.40
1025;DHT22;501;48.214;11.350;2023-03-24T16:13:15;12.80;54.80
1025;DHT22;501;48.214;11.350;2023-03-24T16:16:15;12.60;55.80
1025;DHT22;501;48.214;11.350;2023-03-24T16:18:36;12.50;58.50
1025;DHT22;501;48.214;11.350;2023-03-24T16:21:29;12.40;59.70
1025;DHT22;501;48.214;11.350;2023-03-24T16:23:56;12.30;60.50
1025;DHT22;501;48.214;11.350;2023-03-24T16:26:25;12.20;62.70
1025;DHT22;501;48.214;11.350;2023-03-24T16:28:52;12.10;63.70
1025;DHT22;501;48.214;11.350;2023-03-24T16:31:23;12.00;65.30
1025;DHT22;501;48.214;11.350;2023-03-24T16:33:51;12.00;66.80
1025;DHT22;501;48.214;11.350;2023-03-24T16:36:17;12.00;65.70
1025;DHT22;501;48.214;11.350;2023-03-24T16:38:47;11.90;66.00
1025;DHT22;501;48.214;11.350;2023-03-24T16:41:14;11.90;66.90
1025;DHT22;501;48.214;11.350;2023-03-24T16:43:41;11.90;66.50
1025;DHT22;501;48.214;11.350;2023-03-24T16:46:29;11.80;66.90
1025;DHT22;501;48.214;11.350;2023-03-24T16:48:55;11.80;66.40
1025;DHT22;501;48.214;11.350;2023-03-24T16:51:21;11.80;67.60
1025;DHT22;501;48.214;11.350;2023-03-24T16:53:47;11.70;66.50
1025;DHT22;501;48.214;11.350;2023-03-24T16:56:15;11.80;67.60
1025;DHT22;501;48.214;11.350;2023-03-24T16:58:41;11.70;65.30
1025;DHT22;501;48.214;11.350;2023-03-24T17:01:19;11.70;65.90
1025;DHT22;501;48.214;11.350;2023-03-24T17:03:52;11.70;67.10
1025;DHT22;501;48.214;11.350;2023-03-24T17:06:19;11.70;67.50
1025;DHT22;501;48.214;11.350;2023-03-24T17:08:45;11.60;63.70
1025;DHT22;501;48.214;11.350;2023-03-24T17:11:11;11.60;64.90
1025;DHT22;501;48.214;11.350;2023-03-24T17:13:36;11.60;64.90
1025;DHT22;501;48.214;11.350;2023-03-24T17:16:02;11.60;63.30
1025;DHT22;501;48.214;11.350;2023-03-24T17:18:28;11.60;62.90
1025;DHT22;501;48.214;11.350;2023-03-24T17:20:53;11.60;61.60
1025;DHT22;501;48.214;11.350;2023-03-24T17:23:19;11.60;60.50
1025;DHT22;501;48.214;11.350;2023-03-24T17:25:46;11.60;59.00
1025;DHT22;501;48.214;11.350;2023-03-24T17:28:16;11.60;56.30
1025;DHT22;501;48.214;11.350;2023-03-24T17:30:42;11.60;56.40
1025;DHT22;501;48.214;11.350;2023-03-24T17:33:11;11.50;55.80
1025;DHT22;501;48.214;11.350;2023-03-24T17:35:37;11.50;54.10
1025;DHT22;501;48.214;11.350;2023-03-24T17:38:03;11.50;53.30
1025;DHT22;501;48.214;11.350;2023-03-24T17:40:29;11.40;53.90
1025;DHT22;501;48.214;11.350;2023-03-24T17:42:54;11.40;52.70
1025;DHT22;501;48.214;11.350;2023-03-24T17:45:20;11.40;53.00
1025;DHT22;501;48.214;11.350;2023-03-24T17:47:46;11.40;53.80
1025;DHT22;501;48.214;11.350;2023-03-24T17:50:12;11.40;53.10
1025;DHT22;501;48.214;11.350;2023-03-24T17:52:43;11.40;53.90
1025;DHT22;501;48.214;11.350;2023-03-24T17:55:11;11.40;53.60
1025;DHT22;501;48.214;11.350;2023-03-24T17:57:37;11.40;52.90
1025;DHT22;501;48.214;11.350;2023-03-24T18:00:03;11.40;53.60
1025;DHT22;501;48.214;11.350;2023-03-24T18:02:31;11.40;53.70
1025;DHT22;501;48.214;11.350;2023-03-24T18:04:57;11.40;53.20
1025;DHT22;501;48.214;11.350;2023-03-24T18:07:23;11.30;52.90
1025;DHT22;501;48.214;11.350;2023-03-24T18:09:49;11.30;52.00
1025;DHT22;501;48.214;11.350;2023-03-24T18:12:16;11.30;51.80
1025;DHT22;501;48.214;11.350;2023-03-24T18:14:42;11.30;52.80
1025;DHT22;501;48.214;11.350;2023-03-24T18:17:09;11.30;51.00
1025;DHT22;501;48.214;11.350;2023-03-24T18:19:34;11.30;51.10
1025;DHT22;501;48.214;11.350;2023-03-24T18:22:00;11.20;51.20
1025;DHT22;501;48.214;11.350;2023-03-24T18:24:26;11.20;51.10
1025;DHT22;501;48.214;11.350;2023-03-24T18:26:51;11.20;50.10
1025;DHT22;501;48.214;11.350;2023-03-24T18:29:17;11.20;50.00
1025;DHT22;501;48.214;11.350;2023-03-24T18:31:46;11.10;50.00
1025;DHT22;501;48.214;11.350;2023-03-24T18:34:12;11.10;50.50
1025;DHT22;501;48.214;11.350;2023-03-24T18:36:38;11.10;50.00
1025;DHT22;501;48.214;11.350;2023-03-24T18:39:06;11.00;50.40
1025;DHT22;501;48.214;11.350;2023-03-24T18:41:32;11.00;50.10
1025;DHT22;501;48.214;11.350;2023-03-24T18:44:02;11.00;49.90
1025;DHT22;501;48.214;11.350;2023-03-24T18:46:28;11.00;49.90
1025;DHT22;501;48.214;11.350;2023-03-24T18:48:55;11.00;49.90
1025;DHT22;501;48.214;11.350;2023-03-24T18:51:22;11.00;50.00
1025;DHT22;501;48.214;11.350;2023-03-24T18:53:50;11.00;49.90
1025;DHT22;501;48.214;11.350;2023-03-24T18:56:16;10.90;49.10
1025;DHT22;501;48.214;11.350;2023-03-24T18:58:42;10.90;48.50
1025;DHT22;501;48.214;11.350;2023-03-24T19:01:10;10.90;48.30
1025;DHT22;501;48.214;11.350;2023-03-24T19:03:38;10.90;49.80
1025;DHT22;501;48.214;11.350;2023-03-24T19:06:06;10.90;48.50
1025;DHT22;501;48.214;11.350;2023-03-24T19:08:34;10.90;47.50